createdAt,value
2018-04-02T00:00:48.756Z,1012.65
2018-04-02T00:01:57.884Z,1012.66
2018-04-02T00:03:06.990Z,1012.65
2018-04-02T00:04:15.819Z,1012.65
2018-04-02T00:05:24.921Z,1012.63
2018-04-02T00:06:33.747Z,1012.6
2018-04-02T00:07:42.942Z,1012.64
2018-04-02T00:08:51.774Z,1012.65
2018-04-02T00:10:00.889Z,1012.64
2018-04-02T00:11:09.993Z,1012.6
2018-04-02T00:12:18.820Z,1012.61
2018-04-02T00:13:27.749Z,1012.63
2018-04-02T00:14:36.575Z,1012.61
2018-04-02T00:15:45.403Z,1012.66
2018-04-02T00:16:54.229Z,1012.58
2018-04-02T00:18:03.058Z,1012.57
2018-04-02T00:19:12.211Z,1012.6
2018-04-02T00:20:21.041Z,1012.57
2018-04-02T00:21:29.870Z,1012.58
2018-04-02T00:22:38.697Z,1012.6
2018-04-02T00:23:47.523Z,1012.57
2018-04-02T00:24:56.600Z,1012.54
2018-04-02T00:26:05.427Z,1012.49
2018-04-02T00:27:14.254Z,1012.49
2018-04-02T00:28:23.081Z,1012.53
2018-04-02T00:29:31.908Z,1012.48
2018-04-02T00:30:41.784Z,1012.49
2018-04-02T00:31:50.612Z,1012.5
2018-04-02T00:32:59.728Z,1012.45
2018-04-02T00:34:08.829Z,1012.5
2018-04-02T00:35:17.657Z,1012.52
2018-04-02T00:36:26.786Z,1012.49
2018-04-02T00:37:35.614Z,1012.5
2018-04-02T00:38:44.441Z,1012.52
2018-04-02T00:39:53.548Z,1012.53
2018-04-02T00:41:02.374Z,1012.55
2018-04-02T00:42:11.736Z,1012.58
2018-04-02T00:43:20.563Z,1012.54
2018-04-02T00:44:29.666Z,1012.57
2018-04-02T00:45:38.513Z,1012.5
2018-04-02T00:46:47.324Z,1012.53
2018-04-02T00:47:56.310Z,1012.54
2018-04-02T00:49:05.130Z,1012.56
2018-04-02T00:50:13.957Z,1012.57
2018-04-02T00:51:22.786Z,1012.58
2018-04-02T00:52:31.612Z,1012.6
2018-04-02T00:53:40.539Z,1012.56
2018-04-02T00:54:49.650Z,1012.56
2018-04-02T00:55:58.480Z,1012.56
2018-04-02T00:57:07.585Z,1012.56
2018-04-02T00:58:16.412Z,1012.56
2018-04-02T00:59:25.722Z,1012.54
2018-04-02T01:00:34.549Z,1012.57
2018-04-02T01:01:43.655Z,1012.58
2018-04-02T01:02:52.759Z,1012.58
2018-04-02T01:04:01.874Z,1012.57
2018-04-02T01:05:11.169Z,1012.52
2018-04-02T01:06:20.003Z,1012.57
2018-04-02T01:07:28.829Z,1012.54
2018-04-02T01:08:37.656Z,1012.57
2018-04-02T01:09:46.486Z,1012.58
2018-04-02T01:10:55.468Z,1012.6
2018-04-02T01:12:04.295Z,1012.61
2018-04-02T01:13:13.397Z,1012.6
2018-04-02T01:14:22.222Z,1012.59
2018-04-02T01:15:31.049Z,1012.55
2018-04-02T01:16:40.026Z,1012.56
2018-04-02T01:17:49.130Z,1012.58
2018-04-02T01:18:57.955Z,1012.58
2018-04-02T01:20:07.061Z,1012.57
2018-04-02T01:21:16.164Z,1012.54
2018-04-02T01:22:25.041Z,1012.5
2018-04-02T01:23:34.185Z,1012.53
2018-04-02T01:24:42.967Z,1012.5
2018-04-02T01:25:52.072Z,1012.48
2018-04-02T01:27:00.899Z,1012.5
2018-04-02T01:28:10.127Z,1012.52
2018-04-02T01:29:19.228Z,1012.49
2018-04-02T01:30:28.054Z,1012.51
2018-04-02T01:31:36.881Z,1012.51
2018-04-02T01:32:45.707Z,1012.53
2018-04-02T01:33:54.684Z,1012.56
2018-04-02T01:35:03.532Z,1012.54
2018-04-02T01:36:12.338Z,1012.57
2018-04-02T01:37:21.168Z,1012.54
2018-04-02T01:38:30.276Z,1012.53
2018-04-02T01:39:39.156Z,1012.53
2018-04-02T01:40:48.259Z,1012.56
2018-04-02T01:41:57.082Z,1012.53
2018-04-02T01:43:05.912Z,1012.49
2018-04-02T01:44:15.021Z,1012.49
2018-04-02T01:45:23.899Z,1012.48
2018-04-02T01:46:33.000Z,1012.44
2018-04-02T01:47:41.828Z,1012.44
2018-04-02T01:48:50.655Z,1012.46
2018-04-02T01:49:59.760Z,1012.51
2018-04-02T01:51:08.925Z,1012.51
2018-04-02T01:52:17.752Z,1012.49
2018-04-02T01:53:26.579Z,1012.54
2018-04-02T01:54:35.684Z,1012.52
2018-04-02T01:55:44.510Z,1012.52
2018-04-02T01:56:53.510Z,1012.5
2018-04-02T01:58:02.315Z,1012.47
2018-04-02T01:59:11.696Z,1012.47
2018-04-02T02:00:20.529Z,1012.46
2018-04-02T02:01:29.643Z,1012.45
2018-04-02T02:02:38.514Z,1012.48
2018-04-02T02:03:47.340Z,1012.48
2018-04-02T02:04:56.168Z,1012.5
2018-04-02T02:06:04.995Z,1012.48
2018-04-02T02:07:13.819Z,1012.46
2018-04-02T02:08:22.796Z,1012.44
2018-04-02T02:09:31.621Z,1012.45
2018-04-02T02:10:40.449Z,1012.45
2018-04-02T02:11:49.276Z,1012.48
2018-04-02T02:12:58.103Z,1012.46
2018-04-02T02:14:07.080Z,1012.5
2018-04-02T02:15:15.909Z,1012.45
2018-04-02T02:16:25.012Z,1012.48
2018-04-02T02:17:33.840Z,1012.48
2018-04-02T02:18:42.674Z,1012.48
2018-04-02T02:19:51.592Z,1012.52
2018-04-02T02:21:00.418Z,1012.56
2018-04-02T02:22:09.525Z,1012.51
2018-04-02T02:23:18.352Z,1012.47
2018-04-02T02:24:27.461Z,1012.41
2018-04-02T02:25:36.822Z,1012.43
2018-04-02T02:26:45.646Z,1012.38
2018-04-02T02:27:54.468Z,1012.4
2018-04-02T02:29:03.295Z,1012.39
2018-04-02T02:30:12.123Z,1012.4
2018-04-02T02:31:21.384Z,1012.34
2018-04-02T02:32:30.215Z,1012.36
2018-04-02T02:33:39.046Z,1012.33
2018-04-02T02:34:47.877Z,1012.3
2018-04-02T02:35:56.708Z,1012.3
2018-04-02T02:37:05.917Z,1012.36
2018-04-02T02:38:15.021Z,1012.36
2018-04-02T02:39:23.848Z,1012.31
2018-04-02T02:40:32.676Z,1012.32
2018-04-02T02:41:41.778Z,1012.28
2018-04-02T02:42:51.031Z,1012.26
2018-04-02T02:43:59.858Z,1012.22
2018-04-02T02:45:08.691Z,1012.21
2018-04-02T02:46:17.516Z,1012.2
2018-04-02T02:47:26.342Z,1012.16
2018-04-02T02:48:35.224Z,1012.16
2018-04-02T02:49:44.052Z,1012.15
2018-04-02T02:50:52.879Z,1012.11
2018-04-02T02:52:01.989Z,1012.12
2018-04-02T02:53:11.090Z,1012.07
2018-04-02T02:54:20.168Z,1012.08
2018-04-02T02:55:28.997Z,1012.09
2018-04-02T02:56:37.826Z,1012.1
2018-04-02T02:57:46.653Z,1012.08
2018-04-02T02:58:55.481Z,1012.03
2018-04-02T03:00:04.713Z,1012.05
2018-04-02T03:01:13.541Z,1012.07
2018-04-02T03:02:22.366Z,1012.05
2018-04-02T03:03:31.195Z,1012.01
2018-04-02T03:04:40.303Z,1012
2018-04-02T03:05:49.128Z,1011.99
2018-04-02T03:06:57.959Z,1012
2018-04-02T03:08:06.781Z,1011.97
2018-04-02T03:09:15.610Z,1011.99
2018-04-02T03:10:24.441Z,1011.98
2018-04-02T03:11:33.311Z,1011.99
2018-04-02T03:12:42.137Z,1011.94
2018-04-02T03:13:50.966Z,1012
2018-04-02T03:14:59.795Z,1011.98
2018-04-02T03:16:08.821Z,1011.92
2018-04-02T03:17:17.927Z,1012
2018-04-02T03:18:26.757Z,1012
2018-04-02T03:19:35.585Z,1012.01
2018-04-02T03:20:44.410Z,1011.97
2018-04-02T03:21:53.513Z,1012
2018-04-02T03:23:02.589Z,1012.03
2018-04-02T03:24:11.420Z,1012.01
2018-04-02T03:25:20.241Z,1011.97
2018-04-02T03:26:29.070Z,1011.95
2018-04-02T03:27:37.897Z,1011.97
2018-04-02T03:28:46.724Z,1011.97
2018-04-02T03:29:55.550Z,1011.96
2018-04-02T03:31:04.382Z,1011.96
2018-04-02T03:32:13.488Z,1011.97
2018-04-02T03:33:22.316Z,1011.93
2018-04-02T03:34:31.139Z,1011.98
2018-04-02T03:35:39.966Z,1011.97
2018-04-02T03:36:48.790Z,1011.97
2018-04-02T03:37:57.622Z,1012.01
2018-04-02T03:39:06.448Z,1012
2018-04-02T03:40:15.423Z,1012.04
2018-04-02T03:41:24.248Z,1012.04
2018-04-02T03:42:33.076Z,1012.02
2018-04-02T03:43:41.906Z,1011.99
2018-04-02T03:44:51.279Z,1012.02
2018-04-02T03:46:00.405Z,1012
2018-04-02T03:47:09.513Z,1012.03
2018-04-02T03:48:18.339Z,1011.99
2018-04-02T03:49:27.168Z,1012
2018-04-02T03:50:35.994Z,1012.01
2018-04-02T03:51:44.826Z,1012.05
2018-04-02T03:52:53.649Z,1012.06
2018-04-02T03:54:02.475Z,1012.06
2018-04-02T03:55:11.298Z,1012.05
2018-04-02T03:56:20.129Z,1011.99
2018-04-02T03:57:29.006Z,1012.02
2018-04-02T03:58:37.833Z,1012.04
2018-04-02T03:59:46.657Z,1012.05
2018-04-02T04:00:55.759Z,1012.01
2018-04-02T04:02:04.585Z,1012
2018-04-02T04:03:13.713Z,1011.99
2018-04-02T04:04:23.090Z,1011.98
2018-04-02T04:05:31.917Z,1011.99
2018-04-02T04:06:40.742Z,1012.01
2018-04-02T04:07:49.568Z,1011.98
2018-04-02T04:08:58.396Z,1011.99
2018-04-02T04:10:07.220Z,1011.98
2018-04-02T04:11:16.044Z,1011.94
2018-04-02T04:12:24.871Z,1011.94
2018-04-02T04:13:33.695Z,1011.97
2018-04-02T04:14:42.671Z,1011.98
2018-04-02T04:15:51.496Z,1012.02
2018-04-02T04:17:00.600Z,1011.95
2018-04-02T04:18:09.427Z,1011.95
2018-04-02T04:19:18.252Z,1011.97
2018-04-02T04:20:27.457Z,1011.97
2018-04-02T04:21:36.284Z,1011.94
2018-04-02T04:22:45.389Z,1011.91
2018-04-02T04:23:54.493Z,1011.93
2018-04-02T04:25:03.319Z,1011.93
2018-04-02T04:26:12.296Z,1011.94
2018-04-02T04:27:21.121Z,1011.97
2018-04-02T04:28:29.951Z,1011.98
2018-04-02T04:29:38.775Z,1011.95
2018-04-02T04:30:47.600Z,1011.97
2018-04-02T04:31:56.727Z,1011.97
2018-04-02T04:33:05.555Z,1011.94
2018-04-02T04:34:14.380Z,1011.93
2018-04-02T04:35:23.207Z,1011.91
2018-04-02T04:36:32.037Z,1011.96
2018-04-02T04:37:40.912Z,1011.98
2018-04-02T04:38:49.746Z,1011.96
2018-04-02T04:39:58.563Z,1011.95
2018-04-02T04:41:07.388Z,1011.99
2018-04-02T04:42:16.243Z,1012.01
2018-04-02T04:43:25.442Z,1011.99
2018-04-02T04:44:34.267Z,1012
2018-04-02T04:45:43.093Z,1012.01
2018-04-02T04:46:51.918Z,1012.01
2018-04-02T04:48:00.744Z,1012.01
2018-04-02T04:49:09.670Z,1012.05
2018-04-02T04:50:18.499Z,1012
2018-04-02T04:51:27.598Z,1012
2018-04-02T04:52:36.424Z,1011.99
2018-04-02T04:53:45.252Z,1011.94
2018-04-02T04:54:54.177Z,1011.91
2018-04-02T04:56:03.011Z,1011.93
2018-04-02T04:57:11.829Z,1011.92
2018-04-02T04:58:20.654Z,1011.89
2018-04-02T04:59:29.793Z,1011.9
2018-04-02T05:00:38.732Z,1011.92
2018-04-02T05:01:47.559Z,1011.95
2018-04-02T05:02:56.659Z,1011.93
2018-04-02T05:04:05.485Z,1011.96
2018-04-02T05:05:14.588Z,1011.93
2018-04-02T05:06:23.907Z,1011.94
2018-04-02T05:07:32.736Z,1011.92
2018-04-02T05:08:41.564Z,1011.97
2018-04-02T05:09:50.389Z,1011.94
2018-04-02T05:10:59.215Z,1011.94
2018-04-02T05:12:08.195Z,1011.95
2018-04-02T05:13:17.020Z,1011.92
2018-04-02T05:14:25.846Z,1011.93
2018-04-02T05:15:34.670Z,1011.96
2018-04-02T05:16:43.500Z,1011.95
2018-04-02T05:17:52.473Z,1011.97
2018-04-02T05:19:01.298Z,1011.99
2018-04-02T05:20:10.123Z,1011.95
2018-04-02T05:21:18.949Z,1011.92
2018-04-02T05:22:27.776Z,1011.94
2018-04-02T05:23:36.752Z,1011.97
2018-04-02T05:24:45.578Z,1011.92
2018-04-02T05:25:54.404Z,1011.97
2018-04-02T05:27:03.238Z,1011.96
2018-04-02T05:28:12.340Z,1011.96
2018-04-02T05:29:21.165Z,1012
2018-04-02T05:30:29.998Z,1011.98
2018-04-02T05:31:39.098Z,1011.97
2018-04-02T05:32:48.197Z,1011.94
2018-04-02T05:33:57.020Z,1011.97
2018-04-02T05:35:06.049Z,1011.95
2018-04-02T05:36:14.877Z,1012.01
2018-04-02T05:37:23.703Z,1011.96
2018-04-02T05:38:32.803Z,1011.97
2018-04-02T05:39:41.658Z,1011.92
2018-04-02T05:40:50.454Z,1011.91
2018-04-02T05:41:59.560Z,1011.91
2018-04-02T05:43:08.387Z,1011.89
2018-04-02T05:44:17.215Z,1011.85
2018-04-02T05:45:26.045Z,1011.85
2018-04-02T05:46:35.294Z,1011.86
2018-04-02T05:47:44.118Z,1011.89
2018-04-02T05:48:52.944Z,1011.94
2018-04-02T05:50:02.163Z,1011.89
2018-04-02T05:51:10.982Z,1011.89
2018-04-02T05:52:19.862Z,1011.9
2018-04-02T05:53:28.688Z,1011.88
2018-04-02T05:54:37.800Z,1011.92
2018-04-02T05:55:46.625Z,1011.93
2018-04-02T05:56:55.456Z,1011.92
2018-04-02T05:58:04.616Z,1011.91
2018-04-02T05:59:13.444Z,1011.97
2018-04-02T06:00:22.270Z,1011.97
2018-04-02T06:01:31.097Z,1011.93
2018-04-02T06:02:39.924Z,1011.99
2018-04-02T06:03:48.903Z,1011.98
2018-04-02T06:04:57.730Z,1011.95
2018-04-02T06:06:06.557Z,1011.99
2018-04-02T06:07:15.384Z,1011.98
2018-04-02T06:08:24.216Z,1011.98
2018-04-02T06:09:33.286Z,1011.95
2018-04-02T06:10:42.118Z,1011.92
2018-04-02T06:11:50.945Z,1011.99
2018-04-02T06:12:59.772Z,1011.99
2018-04-02T06:14:08.600Z,1012.02
2018-04-02T06:15:17.704Z,1011.98
2018-04-02T06:16:26.532Z,1012
2018-04-02T06:17:35.359Z,1011.99
2018-04-02T06:18:44.189Z,1012.01
2018-04-02T06:19:53.016Z,1011.99
2018-04-02T06:21:01.845Z,1011.97
2018-04-02T06:22:10.947Z,1011.99
2018-04-02T06:23:20.052Z,1011.99
2018-04-02T06:24:28.877Z,1012.03
2018-04-02T06:25:37.703Z,1012.01
2018-04-02T06:26:46.631Z,1012.01
2018-04-02T06:27:55.738Z,1012.05
2018-04-02T06:29:04.566Z,1012.03
2018-04-02T06:30:13.394Z,1012.06
2018-04-02T06:31:22.230Z,1012.02
2018-04-02T06:32:31.587Z,1012.02
2018-04-02T06:33:40.690Z,1012.04
2018-04-02T06:34:49.516Z,1012.05
2018-04-02T06:35:58.347Z,1012.02
2018-04-02T06:37:07.493Z,1011.98
2018-04-02T06:38:16.557Z,1012.03
2018-04-02T06:39:25.393Z,1011.98
2018-04-02T06:40:34.217Z,1011.99
2018-04-02T06:41:43.050Z,1012.04
2018-04-02T06:42:51.877Z,1012.02
2018-04-02T06:44:00.710Z,1012
2018-04-02T06:45:09.561Z,1011.99
2018-04-02T06:46:18.366Z,1012.01
2018-04-02T06:47:27.478Z,1012.05
2018-04-02T06:48:36.300Z,1012.02
2018-04-02T06:49:45.132Z,1011.97
2018-04-02T06:50:54.237Z,1011.98
2018-04-02T06:52:03.066Z,1011.96
2018-04-02T06:53:11.896Z,1011.97
2018-04-02T06:54:20.728Z,1011.97
2018-04-02T06:55:29.656Z,1011.95
2018-04-02T06:56:38.485Z,1011.96
2018-04-02T06:57:47.314Z,1011.96
2018-04-02T06:58:56.142Z,1011.96
2018-04-02T07:00:04.969Z,1011.95
2018-04-02T07:01:13.808Z,1011.99
2018-04-02T07:02:22.637Z,1011.96
2018-04-02T07:03:32.036Z,1012
2018-04-02T07:04:40.863Z,1012
2018-04-02T07:05:49.698Z,1012.03
2018-04-02T07:06:58.833Z,1012.06
2018-04-02T07:08:07.662Z,1012.08
2018-04-02T07:09:16.492Z,1012.04
2018-04-02T07:10:25.598Z,1012.1
2018-04-02T07:11:34.701Z,1012.07
2018-04-02T07:12:43.908Z,1012.05
2018-04-02T07:13:52.738Z,1012
2018-04-02T07:15:01.567Z,1012
2018-04-02T07:16:10.395Z,1012.05
2018-04-02T07:17:19.243Z,1012.02
2018-04-02T07:18:28.151Z,1012.05
2018-04-02T07:19:36.978Z,1012.04
2018-04-02T07:20:45.811Z,1012.06
2018-04-02T07:21:54.639Z,1012.04
2018-04-02T07:23:03.478Z,1012.07
2018-04-02T07:24:12.348Z,1012.02
2018-04-02T07:25:21.176Z,1012.05
2018-04-02T07:26:30.014Z,1012.02
2018-04-02T07:27:38.843Z,1012.01
2018-04-02T07:28:47.676Z,1012.02
2018-04-02T07:29:56.658Z,1012.01
2018-04-02T07:31:05.774Z,1011.99
2018-04-02T07:32:14.605Z,1011.99
2018-04-02T07:33:23.435Z,1012
2018-04-02T07:34:32.266Z,1011.97
2018-04-02T07:35:41.097Z,1011.99
2018-04-02T07:36:49.926Z,1011.96
2018-04-02T07:37:58.761Z,1012
2018-04-02T07:39:07.587Z,1011.99
2018-04-02T07:40:16.424Z,1012.01
2018-04-02T07:41:25.627Z,1011.97
2018-04-02T07:42:34.743Z,1011.97
2018-04-02T07:43:46.220Z,1011.97
2018-04-02T07:44:55.328Z,1011.96
2018-04-02T07:46:04.158Z,1011.99
2018-04-02T07:47:12.993Z,1011.95
2018-04-02T07:48:21.823Z,1011.9
2018-04-02T07:49:30.656Z,1011.94
2018-04-02T07:50:39.548Z,1011.94
2018-04-02T07:51:48.321Z,1011.93
2018-04-02T07:52:57.166Z,1011.89
2018-04-02T07:54:06.110Z,1011.92
2018-04-02T07:55:14.942Z,1011.95
2018-04-02T07:56:23.774Z,1011.92
2018-04-02T07:57:32.603Z,1011.94
2018-04-02T07:58:41.706Z,1011.9
2018-04-02T07:59:50.566Z,1011.93
2018-04-02T08:00:59.402Z,1011.87
2018-04-02T08:02:08.503Z,1011.87
2018-04-02T08:03:17.335Z,1011.88
2018-04-02T08:04:26.167Z,1011.86
2018-04-02T08:05:35.007Z,1011.85
2018-04-02T08:06:43.836Z,1011.87
2018-04-02T08:07:52.675Z,1011.88
2018-04-02T08:09:01.520Z,1011.9
2018-04-02T08:10:10.355Z,1011.91
2018-04-02T08:11:19.197Z,1011.91
2018-04-02T08:12:28.036Z,1011.9
2018-04-02T08:13:36.874Z,1011.94
2018-04-02T08:14:45.708Z,1011.95
2018-04-02T08:15:54.562Z,1011.89
2018-04-02T08:17:03.368Z,1011.9
2018-04-02T08:18:12.320Z,1011.93
2018-04-02T08:19:21.147Z,1011.93
2018-04-02T08:20:29.978Z,1011.86
2018-04-02T08:21:38.812Z,1011.85
2018-04-02T08:22:47.641Z,1011.89
2018-04-02T08:23:56.572Z,1011.83
2018-04-02T08:25:05.679Z,1011.82
2018-04-02T08:26:14.512Z,1011.84
2018-04-02T08:27:23.345Z,1011.81
2018-04-02T08:28:32.177Z,1011.8
2018-04-02T08:29:41.063Z,1011.77
2018-04-02T08:30:49.892Z,1011.79
2018-04-02T08:31:58.998Z,1011.81
2018-04-02T08:33:07.827Z,1011.8
2018-04-02T08:34:16.658Z,1011.78
2018-04-02T08:35:25.540Z,1011.77
2018-04-02T08:36:34.378Z,1011.82
2018-04-02T08:37:43.205Z,1011.77
2018-04-02T08:38:52.400Z,1011.79
2018-04-02T08:40:01.146Z,1011.77
2018-04-02T08:41:09.980Z,1011.76
2018-04-02T08:42:18.815Z,1011.76
2018-04-02T08:43:27.640Z,1011.77
2018-04-02T08:44:36.471Z,1011.79
2018-04-02T08:45:45.319Z,1011.75
2018-04-02T08:46:54.435Z,1011.73
2018-04-02T08:48:03.271Z,1011.65
2018-04-02T08:49:12.104Z,1011.61
2018-04-02T08:50:20.934Z,1011.66
2018-04-02T08:51:30.052Z,1011.65
2018-04-02T08:52:39.165Z,1011.64
2018-04-02T08:53:48.274Z,1011.68
2018-04-02T08:54:57.383Z,1011.62
2018-04-02T08:56:06.218Z,1011.61
2018-04-02T08:57:15.329Z,1011.6
2018-04-02T08:58:24.410Z,1011.58
2018-04-02T08:59:33.245Z,1011.58
2018-04-02T09:00:42.391Z,1011.54
2018-04-02T09:01:51.182Z,1011.51
2018-04-02T09:03:00.016Z,1011.53
2018-04-02T09:04:08.849Z,1011.49
2018-04-02T09:05:17.682Z,1011.47
2018-04-02T09:06:26.510Z,1011.52
2018-04-02T09:07:35.342Z,1011.51
2018-04-02T09:08:44.176Z,1011.48
2018-04-02T09:09:53.259Z,1011.48
2018-04-02T09:11:02.095Z,1011.51
2018-04-02T09:12:10.926Z,1011.49
2018-04-02T09:13:19.764Z,1011.5
2018-04-02T09:14:28.584Z,1011.51
2018-04-02T09:15:37.515Z,1011.47
2018-04-02T09:16:46.350Z,1011.54
2018-04-02T09:17:55.181Z,1011.49
2018-04-02T09:19:04.290Z,1011.48
2018-04-02T09:20:13.121Z,1011.48
2018-04-02T09:21:22.255Z,1011.46
2018-04-02T09:22:31.089Z,1011.47
2018-04-02T09:23:39.922Z,1011.5
2018-04-02T09:24:48.802Z,1011.42
2018-04-02T09:25:57.590Z,1011.42
2018-04-02T09:27:06.731Z,1011.41
2018-04-02T09:28:15.559Z,1011.39
2018-04-02T09:29:24.391Z,1011.38
2018-04-02T09:30:33.222Z,1011.33
2018-04-02T09:31:42.054Z,1011.35
2018-04-02T09:32:51.320Z,1011.31
2018-04-02T09:34:00.152Z,1011.28
2018-04-02T09:35:08.984Z,1011.32
2018-04-02T09:36:17.820Z,1011.24
2018-04-02T09:37:26.658Z,1011.24
2018-04-02T09:38:36.140Z,1011.22
2018-04-02T09:39:44.972Z,1011.17
2018-04-02T09:40:54.089Z,1011.13
2018-04-02T09:42:02.931Z,1011.16
2018-04-02T09:43:11.771Z,1011.09
2018-04-02T09:44:20.616Z,1011.12
2018-04-02T09:45:29.460Z,1011.07
2018-04-02T09:46:38.319Z,1011.08
2018-04-02T09:47:47.496Z,1011.06
2018-04-02T09:48:56.291Z,1011.01
2018-04-02T09:50:05.392Z,1010.98
2018-04-02T09:51:14.510Z,1010.98
2018-04-02T09:52:23.356Z,1010.9
2018-04-02T09:53:32.214Z,1010.92
2018-04-02T09:54:41.103Z,1010.95
2018-04-02T09:55:50.103Z,1010.93
2018-04-02T09:56:58.946Z,1010.9
2018-04-02T09:58:07.799Z,1010.89
2018-04-02T09:59:16.980Z,1010.91
2018-04-02T10:00:26.141Z,1010.88
2018-04-02T10:01:35.515Z,1010.83
2018-04-02T10:02:44.357Z,1010.79
2018-04-02T10:03:53.199Z,1010.81
2018-04-02T10:05:02.164Z,1010.81
2018-04-02T10:06:10.905Z,1010.81
2018-04-02T10:07:20.072Z,1010.81
2018-04-02T10:08:28.905Z,1010.79
2018-04-02T10:09:38.017Z,1010.8
2018-04-02T10:10:46.849Z,1010.78
2018-04-02T10:11:55.687Z,1010.76
2018-04-02T10:13:04.796Z,1010.71
2018-04-02T10:14:13.906Z,1010.78
2018-04-02T10:15:22.786Z,1010.74
2018-04-02T10:16:31.906Z,1010.74
2018-04-02T10:17:40.742Z,1010.74
2018-04-02T10:18:49.582Z,1010.71
2018-04-02T10:19:58.451Z,1010.73
2018-04-02T10:21:07.300Z,1010.72
2018-04-02T10:22:16.422Z,1010.68
2018-04-02T10:23:25.541Z,1010.7
2018-04-02T10:24:34.377Z,1010.7
2018-04-02T10:25:43.212Z,1010.65
2018-04-02T10:26:52.047Z,1010.68
2018-04-02T10:28:00.882Z,1010.65
2018-04-02T10:29:10.003Z,1010.65
2018-04-02T10:30:18.830Z,1010.6
2018-04-02T10:31:27.666Z,1010.6
2018-04-02T10:32:36.503Z,1010.58
2018-04-02T10:33:45.709Z,1010.55
2018-04-02T10:34:54.560Z,1010.48
2018-04-02T10:36:03.666Z,1010.42
2018-04-02T10:37:12.540Z,1010.45
2018-04-02T10:38:21.395Z,1010.45
2018-04-02T10:39:30.232Z,1010.48
2018-04-02T10:40:39.068Z,1010.51
2018-04-02T10:41:47.903Z,1010.52
2018-04-02T10:42:56.743Z,1010.51
2018-04-02T10:44:05.584Z,1010.47
2018-04-02T10:45:14.695Z,1010.47
2018-04-02T10:46:23.533Z,1010.44
2018-04-02T10:47:32.373Z,1010.45
2018-04-02T10:48:41.240Z,1010.43
2018-04-02T10:49:50.433Z,1010.4
2018-04-02T10:50:59.270Z,1010.37
2018-04-02T10:52:08.113Z,1010.35
2018-04-02T10:53:16.946Z,1010.37
2018-04-02T10:54:26.399Z,1010.33
2018-04-02T10:55:35.813Z,1010.33
2018-04-02T10:56:44.650Z,1010.32
2018-04-02T10:57:53.489Z,1010.29
2018-04-02T10:59:02.340Z,1010.34
2018-04-02T11:00:11.451Z,1010.35
2018-04-02T11:01:20.287Z,1010.29
2018-04-02T11:02:29.125Z,1010.31
2018-04-02T11:03:37.961Z,1010.22
2018-04-02T11:04:46.796Z,1010.26
2018-04-02T11:05:55.634Z,1010.21
2018-04-02T11:07:04.621Z,1010.22
2018-04-02T11:08:13.459Z,1010.18
2018-04-02T11:09:22.579Z,1010.22
2018-04-02T11:10:31.409Z,1010.14
2018-04-02T11:11:40.253Z,1010.16
2018-04-02T11:12:49.238Z,1010.12
2018-04-02T11:13:58.077Z,1010.13
2018-04-02T11:15:06.915Z,1010.14
2018-04-02T11:16:15.756Z,1010.11
2018-04-02T11:17:24.591Z,1010.15
2018-04-02T11:18:33.578Z,1010.14
2018-04-02T11:19:42.412Z,1010.09
2018-04-02T11:20:51.249Z,1010.11
2018-04-02T11:22:00.087Z,1010.15
2018-04-02T11:23:09.223Z,1010.11
2018-04-02T11:24:18.114Z,1010.09
2018-04-02T11:25:26.951Z,1010.07
2018-04-02T11:26:36.696Z,1010.06
2018-04-02T11:27:45.528Z,1010.04
2018-04-02T11:28:54.423Z,1010.02
2018-04-02T11:30:03.206Z,1010.02
2018-04-02T11:31:12.047Z,1009.99
2018-04-02T11:32:20.886Z,1010.01
2018-04-02T11:33:29.729Z,1009.96
2018-04-02T11:34:38.560Z,1009.98
2018-04-02T11:35:47.555Z,1009.96
2018-04-02T11:36:56.356Z,1009.94
2018-04-02T11:38:05.201Z,1009.95
2018-04-02T11:39:14.037Z,1009.95
2018-04-02T11:40:22.873Z,1009.88
2018-04-02T11:41:31.712Z,1009.81
2018-04-02T11:42:40.550Z,1009.81
2018-04-02T11:43:49.392Z,1009.82
2018-04-02T11:44:58.224Z,1009.8
2018-04-02T11:46:07.060Z,1009.73
2018-04-02T11:47:15.947Z,1009.71
2018-04-02T11:48:24.785Z,1009.71
2018-04-02T11:49:33.624Z,1009.71
2018-04-02T11:50:42.459Z,1009.68
2018-04-02T11:51:51.297Z,1009.71
2018-04-02T11:53:00.234Z,1009.65
2018-04-02T11:54:09.072Z,1009.67
2018-04-02T11:55:17.911Z,1009.69
2018-04-02T11:56:26.753Z,1009.66
2018-04-02T11:57:35.591Z,1009.69
2018-04-02T11:58:44.582Z,1009.65
2018-04-02T11:59:53.434Z,1009.65
2018-04-02T12:01:02.281Z,1009.67
2018-04-02T12:02:11.118Z,1009.65
2018-04-02T12:03:19.954Z,1009.64
2018-04-02T12:04:28.792Z,1009.61
2018-04-02T12:05:37.630Z,1009.64
2018-04-02T12:06:46.515Z,1009.56
2018-04-02T12:07:55.354Z,1009.59
2018-04-02T12:09:04.195Z,1009.6
2018-04-02T12:10:13.030Z,1009.62
2018-04-02T12:11:21.872Z,1009.6
2018-04-02T12:12:31.333Z,1009.57
2018-04-02T12:13:39.550Z,1009.59
2018-04-02T12:14:48.439Z,1009.61
2018-04-02T12:15:57.830Z,1009.59
2018-04-02T12:17:06.666Z,1009.54
2018-04-02T12:18:15.502Z,1009.54
2018-04-02T12:19:24.340Z,1009.59
2018-04-02T12:20:33.178Z,1009.52
2018-04-02T12:21:42.016Z,1009.53
2018-04-02T12:22:50.853Z,1009.49
2018-04-02T12:23:59.691Z,1009.52
2018-04-02T12:25:08.529Z,1009.5
2018-04-02T12:26:17.368Z,1009.45
2018-04-02T12:27:26.258Z,1009.42
2018-04-02T12:28:35.097Z,1009.42
2018-04-02T12:29:43.936Z,1009.43
2018-04-02T12:30:52.774Z,1009.41
2018-04-02T12:32:01.613Z,1009.43
2018-04-02T12:33:10.728Z,1009.43
2018-04-02T12:34:19.565Z,1009.36
2018-04-02T12:35:28.404Z,1009.37
2018-04-02T12:36:37.241Z,1009.33
2018-04-02T12:37:46.077Z,1009.34
2018-04-02T12:38:54.966Z,1009.33
2018-04-02T12:40:03.801Z,1009.31
2018-04-02T12:41:12.638Z,1009.32
2018-04-02T12:42:21.475Z,1009.3
2018-04-02T12:43:30.313Z,1009.27
2018-04-02T12:44:39.537Z,1009.29
2018-04-02T12:45:48.376Z,1009.26
2018-04-02T12:46:57.802Z,1009.27
2018-04-02T12:48:06.642Z,1009.23
2018-04-02T12:49:15.481Z,1009.17
2018-04-02T12:50:24.322Z,1009.22
2018-04-02T12:51:33.158Z,1009.17
2018-04-02T12:52:42.001Z,1009.14
2018-04-02T12:53:50.839Z,1009.1
2018-04-02T12:54:59.954Z,1009.04
2018-04-02T12:56:09.217Z,1009.03
2018-04-02T12:57:18.056Z,1009.04
2018-04-02T12:58:26.896Z,1009
2018-04-02T12:59:35.736Z,1009
2018-04-02T13:00:44.574Z,1008.97
2018-04-02T13:01:53.512Z,1008.93
2018-04-02T13:03:02.628Z,1008.91
2018-04-02T13:04:11.464Z,1008.89
2018-04-02T13:05:20.307Z,1008.87
2018-04-02T13:06:29.417Z,1008.88
2018-04-02T13:07:38.783Z,1008.85
2018-04-02T13:08:47.621Z,1008.88
2018-04-02T13:09:56.734Z,1008.87
2018-04-02T13:11:05.573Z,1008.84
2018-04-02T13:12:14.410Z,1008.82
2018-04-02T13:13:23.525Z,1008.79
2018-04-02T13:14:32.365Z,1008.74
2018-04-02T13:15:41.204Z,1008.75
2018-04-02T13:16:50.328Z,1008.76
2018-04-02T13:17:59.449Z,1008.74
2018-04-02T13:19:08.972Z,1008.74
2018-04-02T13:20:17.808Z,1008.64
2018-04-02T13:21:26.648Z,1008.65
2018-04-02T13:22:35.491Z,1008.6
2018-04-02T13:23:44.324Z,1008.58
2018-04-02T13:24:53.462Z,1008.54
2018-04-02T13:26:02.298Z,1008.55
2018-04-02T13:27:11.136Z,1008.54
2018-04-02T13:28:19.976Z,1008.43
2018-04-02T13:29:28.813Z,1008.52
2018-04-02T13:30:37.748Z,1008.42
2018-04-02T13:31:46.584Z,1008.37
2018-04-02T13:32:55.425Z,1008.37
2018-04-02T13:34:04.263Z,1008.32
2018-04-02T13:35:13.102Z,1008.32
2018-04-02T13:36:21.945Z,1008.25
2018-04-02T13:37:30.782Z,1008.22
2018-04-02T13:38:39.624Z,1008.27
2018-04-02T13:39:48.473Z,1008.24
2018-04-02T13:40:57.314Z,1008.21
2018-04-02T13:42:06.298Z,1008.2
2018-04-02T13:43:15.140Z,1008.14
2018-04-02T13:44:23.978Z,1008.12
2018-04-02T13:45:32.817Z,1008.18
2018-04-02T13:46:41.654Z,1008.12
2018-04-02T13:47:50.639Z,1008.06
2018-04-02T13:48:59.476Z,1008.04
2018-04-02T13:50:08.312Z,1007.96
2018-04-02T13:51:17.428Z,1007.98
2018-04-02T13:52:26.265Z,1007.97
2018-04-02T13:53:35.253Z,1007.95
2018-04-02T13:54:44.090Z,1008
2018-04-02T13:55:52.930Z,1007.94
2018-04-02T13:57:02.046Z,1007.92
2018-04-02T13:58:11.157Z,1007.9